Time;durP1;ratioP1;P1;durP2;ratioP2;P2;SDS_P1;SDS_P2;PMS_P1;PMS_P2;Temp;Humidity;BMP_temperature;BMP_pressure;BME280_temperature;BME280_humidity;BME280_pressure;Samples;Min_cycle;Max_cycle;Signal;HPM_P1;HPM_P2
2023/08/07 00:02:39;;;;;;;13.68;2.22;;;16.10;99.90;;;;;;10518086;28;20408;-42
2023/08/07 00:07:42;;;;;;;20.93;2.43;;;16.30;99.90;;;;;;10514091;28;20049;-34
2023/08/07 00:12:46;;;;;;;12.48;2.13;;;16.30;99.90;;;;;;10529204;28;20442;-35
2023/08/07 00:17:48;;;;;;;5.38;1.88;;;15.80;99.90;;;;;;10530626;28;20093;-35
2023/08/07 00:22:49;;;;;;;10.43;2.23;;;17.10;99.90;;;;;;10517117;28;20450;-36
2023/08/07 00:27:53;;;;;;;11.93;2.33;;;15.90;99.90;;;;;;10513750;28;20044;-35
2023/08/07 00:32:55;;;;;;;8.07;1.83;;;16.70;99.90;;;;;;10524177;28;20095;-35
2023/08/07 00:37:56;;;;;;;13.33;2.60;;;16.00;99.90;;;;;;10517334;28;20084;-33
2023/08/07 00:43:00;;;;;;;21.07;3.03;;;16.60;99.90;;;;;;10524820;28;20044;-36
2023/08/07 00:48:02;;;;;;;16.27;3.10;;;16.80;99.90;;;;;;10521063;28;20093;-36
2023/08/07 00:53:05;;;;;;;7.82;1.88;;;16.80;99.90;;;;;;10521354;28;20055;-35
2023/08/07 00:58:08;;;;;;;;;;;16.90;96.70;;;;;;10507764;28;20080;-34
2023/08/07 01:03:11;;;;;;;;;;;16.50;99.80;;;;;;10514641;28;19989;-43
2023/08/07 01:08:13;;;;;;;;;;;16.60;99.90;;;;;;10519304;28;19924;-36
2023/08/07 01:13:24;;;;;;;15.52;2.25;;;16.90;99.80;;;;;;10511253;28;20365;-39
2023/08/07 01:18:26;;;;;;;18.83;2.65;;;16.70;99.90;;;;;;10497461;28;20088;-33
2023/08/07 01:23:30;;;;;;;15.02;2.88;;;16.80;99.90;;;;;;10516504;28;20155;-39
2023/08/07 01:28:37;;;;;;;20.40;2.33;;;16.70;99.90;;;;;;10507301;28;20045;-34
2023/08/07 01:33:48;;;;;;;3.10;1.40;;;16.70;99.90;;;;;;10503632;28;20090;-34
2023/08/07 01:38:53;;;;;;;11.23;2.53;;;16.40;99.90;;;;;;10517683;28;21531;-35
2023/08/07 01:43:55;;;;;;;17.02;2.10;;;17.00;99.90;;;;;;10509229;28;20082;-34
2023/08/07 01:48:57;;;;;;;8.63;2.45;;;16.10;99.90;;;;;;10525810;28;20127;-34
2023/08/07 01:54:00;;;;;;;11.53;1.93;;;16.80;99.90;;;;;;10509786;28;20539;-40
2023/08/07 01:59:02;;;;;;;12.38;3.25;;;16.90;99.90;;;;;;10517268;28;20071;-40
2023/08/07 02:04:04;;;;;;;12.63;2.50;;;16.40;99.90;;;;;;10508195;28;20504;-41
2023/08/07 02:09:07;;;;;;;11.15;1.80;;;16.70;99.90;;;;;;10496748;28;20044;-34
2023/08/07 02:14:09;;;;;;;6.85;2.05;;;16.80;99.90;;;;;;10515291;28;20044;-39
2023/08/07 02:19:11;;;;;;;9.00;2.20;;;16.60;99.90;;;;;;10510817;28;20105;-37
2023/08/07 02:24:18;;;;;;;14.40;1.70;;;16.70;98.90;;;;;;10517692;28;20555;-37
2023/08/07 02:29:19;;;;;;;11.55;2.63;;;16.80;99.90;;;;;;10521099;28;20043;-35
2023/08/07 02:34:21;;;;;;;7.43;2.43;;;16.90;99.90;;;;;;10505345;28;20089;-35
2023/08/07 02:39:26;;;;;;;8.53;1.87;;;16.80;99.90;;;;;;10517486;28;20131;-33
2023/08/07 02:44:28;;;;;;;7.63;2.00;;;16.80;99.90;;;;;;10511178;28;20048;-36
2023/08/07 02:49:30;;;;;;;6.63;2.40;;;16.10;99.90;;;;;;10535083;28;20078;-34
2023/08/07 02:54:33;;;;;;;11.43;2.20;;;16.60;99.90;;;;;;10527314;28;20069;-35
2023/08/07 03:15:31;;;;;;;12.93;2.08;;;15.90;99.90;;;;;;10537405;27;20560;-36
2023/08/07 03:20:32;;;;;;;13.63;1.63;;;16.60;99.90;;;;;;10555806;28;20079;-36
2023/08/07 03:25:34;;;;;;;11.63;1.50;;;16.40;99.90;;;;;;10549450;28;20079;-32
2023/08/07 03:30:38;;;;;;;6.63;1.80;;;16.30;99.90;;;;;;10551723;28;20047;-32
2023/08/07 03:35:40;;;;;;;8.23;1.85;;;18.10;99.90;;;;;;10542374;28;20052;-33
2023/08/07 03:40:42;;;;;;;7.90;1.70;;;18.10;99.90;;;;;;10554131;28;20468;-32
2023/08/07 03:45:47;;;;;;;11.68;1.88;;;17.70;99.90;;;;;;10557097;28;20497;-34
2023/08/07 03:50:48;;;;;;;13.43;2.67;;;16.70;99.90;;;;;;10542955;28;20132;-35
2023/08/07 03:55:51;;;;;;;15.47;2.63;;;16.00;99.90;;;;;;10546713;28;20047;-34
2023/08/07 04:00:54;;;;;;;;;;;16.10;99.90;;;;;;10549139;28;20048;-33
2023/08/07 04:05:56;;;;;;;11.77;1.73;;;15.80;99.90;;;;;;10537300;28;20438;-35
2023/08/07 04:11:02;;;;;;;6.22;1.48;;;15.80;99.90;;;;;;10537765;28;20059;-40
2023/08/07 04:16:05;;;;;;;6.07;1.20;;;16.70;99.90;;;;;;10551977;28;20048;-33
2023/08/07 04:21:08;;;;;;;12.90;1.88;;;16.20;99.90;;;;;;10548313;28;20062;-38
2023/08/07 04:26:09;;;;;;;9.02;1.77;;;16.50;99.90;;;;;;10523795;28;20146;-31
2023/08/07 04:31:13;;;;;;;6.23;1.63;;;16.00;99.90;;;;;;10500339;28;20094;-35
2023/08/07 04:36:15;;;;;;;6.95;1.30;;;16.70;99.90;;;;;;10520952;28;20582;-37
2023/08/07 04:41:17;;;;;;;19.27;1.77;;;16.20;99.90;;;;;;10513253;28;20123;-35
2023/08/07 04:46:20;;;;;;;11.33;2.17;;;16.50;99.90;;;;;;10510707;28;20075;-42
2023/08/07 04:51:22;;;;;;;8.32;1.35;;;16.40;99.90;;;;;;10515085;28;20094;-33
2023/08/07 04:56:24;;;;;;;10.33;2.03;;;16.20;99.90;;;;;;10520576;28;20036;-42
2023/08/07 05:01:27;;;;;;;9.00;1.47;;;16.00;99.90;;;;;;10513370;28;20495;-35
2023/08/07 05:06:29;;;;;;;5.50;1.50;;;16.80;99.90;;;;;;10513949;28;20043;-37
2023/08/07 05:11:31;;;;;;;13.87;2.43;;;16.70;99.90;;;;;;10515178;28;20481;-40
2023/08/07 05:16:35;;;;;;;12.27;1.45;;;16.10;99.40;;;;;;10524582;28;20036;-29
2023/08/07 05:21:36;;;;;;;10.52;1.70;;;16.60;99.40;;;;;;10517277;28;20048;-39
2023/08/07 05:26:38;;;;;;;4.47;1.40;;;17.20;99.90;;;;;;10512636;28;20436;-33
2023/08/07 05:31:41;;;;;;;9.40;1.50;;;17.90;97.50;;;;;;10518840;28;20083;-33
2023/08/07 05:36:43;;;;;;;10.73;1.40;;;17.30;99.90;;;;;;10512363;28;20510;-34
2023/08/07 05:41:45;;;;;;;5.57;1.53;;;16.60;99.90;;;;;;10523022;28;20121;-37
2023/08/07 05:46:48;;;;;;;10.53;1.57;;;16.60;99.90;;;;;;10505600;28;20101;-42
2023/08/07 05:51:50;;;;;;;8.18;1.15;;;17.00;98.50;;;;;;10505548;28;20041;-40
2023/08/07 05:56:52;;;;;;;6.27;1.73;;;17.10;99.90;;;;;;10502544;28;20083;-40
2023/08/07 06:01:55;;;;;;;13.95;2.75;;;16.80;99.90;;;;;;10510357;28;20040;-35
2023/08/07 06:06:57;;;;;;;11.13;1.38;;;16.70;99.20;;;;;;10503965;28;20125;-33
2023/08/07 06:11:59;;;;;;;7.30;1.37;;;17.40;99.20;;;;;;10506514;28;20511;-38
2023/08/07 06:17:02;;;;;;;8.90;1.80;;;17.00;99.60;;;;;;10495958;28;20088;-35
2023/08/07 06:22:04;;;;;;;8.45;1.40;;;17.30;99.80;;;;;;10502141;28;20135;-43
2023/08/07 06:27:07;;;;;;;4.18;1.13;;;17.20;94.70;;;;;;10509968;28;20523;-34
2023/08/07 06:32:11;;;;;;;9.00;1.35;;;17.50;98.10;;;;;;10526374;28;20047;-33
2023/08/07 06:37:12;;;;;;;6.50;1.20;;;17.30;95.20;;;;;;10513275;28;20080;-37
2023/08/07 06:42:14;;;;;;;9.93;1.70;;;17.80;93.80;;;;;;10517273;28;20042;-37
2023/08/07 06:47:17;;;;;;;12.77;1.50;;;17.80;98.70;;;;;;10506785;28;20128;-31
2023/08/07 06:52:19;;;;;;;10.75;1.55;;;17.60;93.90;;;;;;10505025;28;20133;-37
2023/08/07 06:57:21;;;;;;;8.47;2.20;;;17.50;99.10;;;;;;10514108;28;20072;-34
2023/08/07 07:02:24;;;;;;;9.27;1.45;;;18.30;95.10;;;;;;10510111;28;20045;-35
2023/08/07 07:07:26;;;;;;;8.50;1.40;;;17.10;93.60;;;;;;10508232;28;20072;-35
2023/08/07 07:12:28;;;;;;;10.27;1.40;;;17.70;98.40;;;;;;10508855;28;20091;-42
2023/08/07 07:17:31;;;;;;;9.25;2.65;;;17.40;92.90;;;;;;10496223;28;20555;-41
2023/08/07 07:22:33;;;;;;;7.43;1.23;;;17.80;95.80;;;;;;10515855;28;20111;-39
2023/08/07 07:27:35;;;;;;;14.23;1.60;;;18.10;92.80;;;;;;10519723;28;20079;-34
2023/08/07 07:32:38;;;;;;;12.30;1.80;;;18.10;94.60;;;;;;10501110;28;20072;-43
2023/08/07 07:37:40;;;;;;;6.90;1.25;;;17.30;97.60;;;;;;10507578;28;20468;-36
2023/08/07 07:42:41;;;;;;;8.83;1.57;;;18.50;93.00;;;;;;10511189;28;20447;-35
2023/08/07 07:47:45;;;;;;;4.88;1.00;;;18.40;90.30;;;;;;10512311;28;20463;-37
2023/08/07 07:52:47;;;;;;;10.88;1.73;;;18.80;95.20;;;;;;10505697;28;20083;-34
2023/08/07 07:57:49;;;;;;;7.38;1.50;;;18.10;90.50;;;;;;10504857;28;20063;-35
2023/08/07 08:02:53;;;;;;;4.18;1.08;;;19.20;84.60;;;;;;10515352;28;20070;-38
2023/08/07 08:07:54;;;;;;;8.10;1.95;;;18.80;94.80;;;;;;10529281;28;20043;-36
2023/08/07 08:12:57;;;;;;;13.88;1.40;;;19.70;93.70;;;;;;10518037;28;20139;-36
2023/08/07 08:18:00;;;;;;;5.47;1.95;;;18.20;90.40;;;;;;10505078;28;20048;-34
2023/08/07 08:23:02;;;;;;;11.63;1.67;;;19.10;94.00;;;;;;10525647;28;20048;-38
2023/08/07 08:28:04;;;;;;;10.75;2.03;;;18.60;81.90;;;;;;10526023;28;20044;-35
2023/08/07 08:33:11;;;;;;;5.68;1.20;;;18.40;89.40;;;;;;10523095;28;20043;-43
2023/08/07 08:38:13;;;;;;;6.00;1.60;;;18.90;90.80;;;;;;10517698;28;20048;-36
2023/08/07 08:43:15;;;;;;;12.13;1.73;;;18.40;91.10;;;;;;10522551;28;20048;-39
2023/08/07 08:48:23;;;;;;;7.47;1.50;;;18.60;90.20;;;;;;10519724;28;20658;-39
2023/08/07 08:53:26;;;;;;;4.63;1.20;;;18.60;90.40;;;;;;10520616;28;20051;-41
2023/08/07 08:58:28;;;;;;;6.88;1.52;;;19.30;86.00;;;;;;10529232;28;20097;-42
2023/08/07 09:03:32;;;;;;;7.22;1.38;;;19.40;83.00;;;;;;10507361;28;20128;-40
2023/08/07 09:08:35;;;;;;;4.82;1.25;;;19.00;87.70;;;;;;10505384;28;20098;-44
2023/08/07 09:13:38;;;;;;;8.05;1.30;;;18.80;90.50;;;;;;10506237;28;20083;-42
2023/08/07 09:18:42;;;;;;;8.93;1.50;;;19.40;89.00;;;;;;10509978;28;20040;-37
2023/08/07 09:23:43;;;;;;;6.25;1.50;;;18.60;90.60;;;;;;10510990;28;20043;-39
2023/08/07 09:28:45;;;;;;;7.25;1.48;;;19.10;90.90;;;;;;10508133;28;20667;-39
2023/08/07 09:33:49;;;;;;;6.53;1.58;;;18.90;93.20;;;;;;10512619;28;20109;-34
2023/08/07 09:38:51;;;;;;;7.38;1.73;;;20.10;90.10;;;;;;10503218;28;20152;-33
2023/08/07 09:43:53;;;;;;;6.22;1.35;;;19.10;87.50;;;;;;10497149;28;20079;-39
2023/08/07 09:48:59;;;;;;;6.53;1.30;;;20.00;81.30;;;;;;10503767;28;20075;-38
2023/08/07 09:54:01;;;;;;;5.10;1.40;;;19.80;89.30;;;;;;10507520;28;20045;-36
2023/08/07 09:59:04;;;;;;;3.70;1.17;;;19.50;91.30;;;;;;10515920;28;20071;-36
2023/08/07 10:04:10;;;;;;;9.05;1.98;;;19.60;90.10;;;;;;10531705;28;20071;-35
2023/08/07 10:09:12;;;;;;;10.25;1.40;;;19.50;90.30;;;;;;10516318;28;20044;-36
2023/08/07 10:14:15;;;;;;;8.95;1.13;;;19.40;90.20;;;;;;10518834;28;20473;-30
2023/08/07 10:19:20;;;;;;;4.38;1.13;;;19.40;92.30;;;;;;10509154;28;20102;-35
2023/08/07 10:24:24;;;;;;;5.88;1.23;;;19.60;89.40;;;;;;10514577;28;20040;-39
2023/08/07 10:29:28;;;;;;;9.68;1.92;;;19.60;81.70;;;;;;10510816;28;20045;-38
2023/08/07 10:34:33;;;;;;;7.75;1.65;;;19.80;84.40;;;;;;10512027;28;20473;-40
2023/08/07 10:39:35;;;;;;;5.05;1.83;;;19.70;83.80;;;;;;10518766;28;20053;-35
2023/08/07 10:44:49;;;;;;;6.40;2.05;;;20.40;83.00;;;;;;10496774;28;20493;-38
2023/08/07 10:49:52;;;;;;;2.10;1.20;;;19.50;89.70;;;;;;10508890;28;20040;-37
2023/08/07 10:54:55;;;;;;;5.07;1.25;;;20.60;89.00;;;;;;10510912;28;20147;-37
2023/08/07 11:00:05;;;;;;;6.28;1.05;;;20.70;86.30;;;;;;10509462;28;20059;-36
2023/08/07 11:05:09;;;;;;;15.05;2.00;;;20.90;88.30;;;;;;10506242;28;20504;-34
2023/08/07 11:10:15;;;;;;;9.07;1.35;;;19.40;90.20;;;;;;10505422;28;20106;-35
2023/08/07 11:15:16;;;;;;;6.45;2.00;;;19.70;86.60;;;;;;10508155;28;20056;-39
2023/08/07 11:20:20;;;;;;;3.45;1.33;;;19.70;92.00;;;;;;10527961;28;20048;-34
2023/08/07 11:25:23;;;;;;;10.13;1.80;;;19.70;87.30;;;;;;10509265;28;20094;-41
2023/08/07 11:30:25;;;;;;;9.77;1.63;;;20.00;90.50;;;;;;10522206;28;20534;-36
2023/08/07 11:35:28;;;;;;;6.47;1.35;;;19.80;91.50;;;;;;10513318;28;20556;-34
2023/08/07 11:40:30;;;;;;;5.30;1.50;;;20.80;82.70;;;;;;10528611;28;20102;-33
2023/08/07 11:45:32;;;;;;;6.32;2.15;;;20.50;84.60;;;;;;10521012;28;20417;-36
2023/08/07 11:50:35;;;;;;;4.88;1.45;;;19.40;90.50;;;;;;10522783;28;20694;-35
2023/08/07 11:55:37;;;;;;;5.60;2.50;;;18.90;96.10;;;;;;10524460;28;20491;-35
2023/08/07 12:00:42;;;;;;;4.60;1.35;;;19.00;99.90;;;;;;10524810;28;20101;-34
2023/08/07 12:05:45;;;;;;;5.60;2.10;;;20.30;93.80;;;;;;10533499;28;20078;-36
2023/08/07 12:10:50;;;;;;;5.75;1.90;;;18.50;99.90;;;;;;10521167;28;20128;-41
2023/08/07 12:15:54;;;;;;;6.05;1.85;;;19.30;97.20;;;;;;10517693;28;20049;-36
2023/08/07 12:21:01;;;;;;;4.90;1.48;;;20.10;94.30;;;;;;10523509;28;20044;-33
2023/08/07 12:26:06;;;;;;;6.07;2.25;;;19.10;96.70;;;;;;10522317;28;20166;-32
2023/08/07 12:31:08;;;;;;;6.85;1.70;;;19.00;96.50;;;;;;10511611;28;20036;-37
2023/08/07 12:36:13;;;;;;;3.15;1.52;;;19.60;95.70;;;;;;10525568;28;20139;-34
2023/08/07 12:41:15;;;;;;;5.45;1.60;;;19.70;95.60;;;;;;10510869;28;20051;-35
2023/08/07 12:46:17;;;;;;;5.80;1.83;;;19.40;94.00;;;;;;10499037;28;20070;-50
2023/08/07 12:51:20;;;;;;;4.57;1.58;;;19.80;95.30;;;;;;10499345;28;20083;-33
2023/08/07 12:56:22;;;;;;;10.20;1.98;;;20.30;92.30;;;;;;10514618;28;20080;-32
2023/08/07 13:01:25;;;;;;;5.45;1.80;;;20.80;89.80;;;;;;10525484;28;20043;-38
2023/08/07 13:06:30;;;;;;;2.63;1.30;;;21.10;87.70;;;;;;10515504;28;20082;-35
2023/08/07 13:11:32;;;;;;;8.77;1.40;;;20.90;87.70;;;;;;10519355;28;20052;-43
2023/08/07 13:16:34;;;;;;;4.85;1.40;;;20.60;90.10;;;;;;10505919;28;20099;-41
2023/08/07 13:21:37;;;;;;;1.52;1.20;;;20.70;87.40;;;;;;10503815;28;20088;-31
2023/08/07 13:26:44;;;;;;;6.22;1.77;;;21.30;85.10;;;;;;10521569;28;20125;-39
2023/08/07 13:31:46;;;;;;;6.47;1.20;;;21.30;89.30;;;;;;10512054;28;20055;-39
2023/08/07 13:36:51;;;;;;;2.28;1.23;;;22.20;88.00;;;;;;10505650;28;20048;-36
2023/08/07 13:41:53;;;;;;;3.95;1.30;;;20.90;87.10;;;;;;10511044;28;20063;-41
2023/08/07 13:46:55;;;;;;;;;;;21.40;85.90;;;;;;10510805;28;20071;-37
2023/08/07 13:51:58;;;;;;;1.95;1.30;;;21.60;80.20;;;;;;10530276;28;19978;-37
2023/08/07 13:56:59;;;;;;;7.15;1.30;;;21.40;87.50;;;;;;10525227;28;20212;-43
2023/08/07 14:02:01;;;;;;;3.30;1.65;;;22.00;79.30;;;;;;10526932;28;20156;-40
2023/08/07 14:07:06;;;;;;;2.90;1.23;;;21.50;86.60;;;;;;10528215;28;20040;-32
2023/08/07 14:12:08;;;;;;;5.90;1.15;;;22.50;90.20;;;;;;10529667;28;20147;-36
2023/08/07 14:17:10;;;;;;;2.50;1.10;;;23.00;75.90;;;;;;10530369;28;20095;-33
2023/08/07 14:22:13;;;;;;;2.03;1.25;;;22.00;81.40;;;;;;10530885;27;20076;-37
2023/08/07 14:27:15;;;;;;;3.58;1.05;;;23.00;87.70;;;;;;10526483;28;20089;-32
2023/08/07 14:32:17;;;;;;;3.33;0.80;;;22.40;81.00;;;;;;10528413;28;20048;-32
2023/08/07 14:37:21;;;;;;;3.42;1.00;;;23.10;80.50;;;;;;10516839;28;20120;-35
2023/08/07 14:42:23;;;;;;;3.40;0.90;;;22.70;81.50;;;;;;10516815;28;20134;-41
2023/08/07 14:47:25;;;;;;;1.95;0.70;;;23.30;84.30;;;;;;10524923;28;20075;-30
2023/08/07 14:52:28;;;;;;;6.07;1.80;;;22.70;77.90;;;;;;10526149;28;20134;-36
2023/08/07 14:57:31;;;;;;;4.88;1.23;;;23.40;74.60;;;;;;10524396;28;20137;-35
2023/08/07 15:02:32;;;;;;;4.93;1.00;;;22.30;76.80;;;;;;10521245;28;20112;-37
2023/08/07 15:07:36;;;;;;;5.45;0.90;;;22.40;81.80;;;;;;10521653;28;20048;-41
2023/08/07 15:12:37;;;;;;;1.58;0.82;;;22.20;90.40;;;;;;10523745;28;20093;-41
2023/08/07 15:17:39;;;;;;;4.95;1.55;;;22.20;82.70;;;;;;10522792;28;20099;-41
2023/08/07 15:22:42;;;;;;;3.75;1.00;;;22.70;82.00;;;;;;10522177;28;20121;-37
2023/08/07 15:27:44;;;;;;;6.25;1.15;;;22.10;92.20;;;;;;10517100;28;20536;-41
2023/08/07 15:32:46;;;;;;;2.40;0.93;;;22.90;76.60;;;;;;10521485;28;20044;-31
2023/08/07 15:37:49;;;;;;;4.07;1.05;;;23.00;91.50;;;;;;10520799;28;20051;-41
2023/08/07 15:42:51;;;;;;;3.92;0.90;;;24.00;84.20;;;;;;10522787;28;20634;-32
2023/08/07 15:47:53;;;;;;;5.97;1.10;;;23.90;74.20;;;;;;10519037;28;20143;-36
2023/08/07 15:52:56;;;;;;;4.22;1.77;;;23.20;90.10;;;;;;10519768;28;20178;-36
2023/08/07 15:57:58;;;;;;;3.75;1.02;;;23.70;72.90;;;;;;10515093;28;20484;-36
2023/08/07 16:03:00;;;;;;;3.08;0.98;;;23.50;77.50;;;;;;10521717;28;20056;-35
2023/08/07 16:08:05;;;;;;;7.32;1.20;;;23.90;83.40;;;;;;10524788;28;20111;-42
2023/08/07 16:13:07;;;;;;;4.25;1.27;;;24.20;75.30;;;;;;10526023;28;20055;-33
2023/08/07 16:18:09;;;;;;;2.72;0.98;;;24.50;68.80;;;;;;10523786;28;20496;-36
2023/08/07 16:23:12;;;;;;;2.97;1.15;;;23.90;70.90;;;;;;10524970;28;20056;-32
2023/08/07 16:28:14;;;;;;;6.80;1.60;;;24.60;80.90;;;;;;10533661;28;20527;-37
2023/08/07 16:33:16;;;;;;;;;;;24.80;69.30;;;;;;10533536;28;20051;-37
2023/08/07 16:38:19;;;;;;;3.88;1.38;;;24.10;81.10;;;;;;10519812;28;20008;-40
2023/08/07 16:43:21;;;;;;;4.28;1.40;;;24.90;78.80;;;;;;10528460;28;20055;-31
2023/08/07 16:48:23;;;;;;;2.58;1.02;;;25.20;70.10;;;;;;10524965;28;20105;-33
2023/08/07 16:53:27;;;;;;;5.18;0.90;;;25.20;63.70;;;;;;10532333;28;20072;-34
2023/08/07 16:58:29;;;;;;;6.50;1.55;;;24.50;80.40;;;;;;10529401;28;20039;-34
2023/08/07 17:03:30;;;;;;;;;;;25.10;78.40;;;;;;10530327;28;20114;-35
2023/08/07 17:08:33;;;;;;;2.42;0.90;;;24.70;72.30;;;;;;10531331;28;19968;-35
2023/08/07 17:13:35;;;;;;;4.32;1.08;;;25.40;68.30;;;;;;10530478;28;20485;-42
2023/08/07 17:18:37;;;;;;;;;;;25.90;83.10;;;;;;10527126;28;20072;-32
2023/08/07 17:23:41;;;;;;;15.63;2.25;;;25.00;93.50;;;;;;10529317;28;19950;-36
2023/08/07 17:28:43;;;;;;;2.78;0.85;;;25.90;83.90;;;;;;10520983;28;20440;-34
2023/08/07 17:33:45;;;;;;;;;;;23.90;68.90;;;;;;10529439;28;20080;-29
2023/08/07 17:38:48;;;;;;;2.63;1.13;;;24.40;76.90;;;;;;10520353;28;19958;-31
2023/08/07 17:43:50;;;;;;;3.55;0.82;;;25.00;68.80;;;;;;10529346;28;20089;-40
2023/08/07 17:48:52;;;;;;;;;;;25.50;67.90;;;;;;10532078;28;20851;-31
2023/08/07 17:53:55;;;;;;;4.45;0.95;;;24.90;76.30;;;;;;10518179;28;20360;-31
2023/08/07 17:58:57;;;;;;;1.10;0.70;;;26.00;68.00;;;;;;10532269;28;20087;-31
2023/08/07 18:03:59;;;;;;;;;;;25.20;64.10;;;;;;10530915;28;20036;-37
2023/08/07 18:09:03;;;;;;;3.45;0.80;;;25.00;77.10;;;;;;10530686;28;20040;-35
2023/08/07 18:14:05;;;;;;;4.38;0.85;;;25.00;70.60;;;;;;10515755;28;20082;-38
2023/08/07 18:19:06;;;;;;;2.45;0.85;;;24.30;70.40;;;;;;10518492;28;20052;-35
2023/08/07 18:24:10;;;;;;;2.50;0.88;;;23.50;71.10;;;;;;10518932;28;20154;-35
2023/08/07 18:29:12;;;;;;;2.35;0.88;;;24.60;80.60;;;;;;10527475;28;20079;-35
2023/08/07 18:34:13;;;;;;;;;;;25.10;77.40;;;;;;10523544;28;20614;-34
2023/08/07 18:39:17;;;;;;;4.55;0.88;;;25.20;76.50;;;;;;10525525;28;20643;-31
2023/08/07 18:44:18;;;;;;;3.20;0.73;;;24.10;79.10;;;;;;10512790;28;20073;-35
2023/08/07 18:49:21;;;;;;;;;;;24.60;83.90;;;;;;10527482;28;20047;-34
2023/08/07 18:54:25;;;;;;;2.67;0.90;;;25.00;80.30;;;;;;10521622;28;20319;-37
2023/08/07 18:59:27;;;;;;;4.47;1.10;;;25.50;72.30;;;;;;10514966;28;20597;-37
2023/08/07 19:04:29;;;;;;;2.97;0.90;;;24.10;83.70;;;;;;10522925;28;20072;-33
2023/08/07 19:09:32;;;;;;;2.08;1.00;;;24.40;80.70;;;;;;10524902;28;20140;-35
2023/08/07 19:14:34;;;;;;;4.35;1.10;;;23.10;91.70;;;;;;10523846;28;20151;-39
2023/08/07 19:19:36;;;;;;;4.10;1.10;;;22.10;79.90;;;;;;10524742;28;20503;-34
2023/08/07 19:24:39;;;;;;;3.05;1.13;;;22.60;94.30;;;;;;10523650;28;20047;-32
2023/08/07 19:29:41;;;;;;;2.80;1.08;;;23.70;90.40;;;;;;10522963;28;20483;-36
2023/08/07 19:34:43;;;;;;;11.75;1.88;;;22.90;87.60;;;;;;10523715;28;20063;-33
2023/08/07 19:39:46;;;;;;;11.65;1.35;;;22.70;91.30;;;;;;10526816;28;20080;-33
2023/08/07 19:44:48;;;;;;;5.80;1.45;;;22.20;90.90;;;;;;10524019;28;20051;-39
2023/08/07 19:49:50;;;;;;;3.83;1.20;;;21.30;98.00;;;;;;10527263;28;20079;-38
2023/08/07 19:54:53;;;;;;;2.40;0.95;;;22.50;94.90;;;;;;10523803;28;20156;-33
2023/08/07 19:59:55;;;;;;;3.50;1.05;;;24.30;87.50;;;;;;10532375;28;20488;-34
2023/08/07 20:04:57;;;;;;;;;;;23.60;89.40;;;;;;10530666;28;20071;-37
2023/08/07 20:10:00;;;;;;;7.03;1.20;;;23.80;85.50;;;;;;10528862;28;20343;-33
2023/08/07 20:15:02;;;;;;;5.75;1.20;;;24.00;85.90;;;;;;10533359;28;20188;-37
2023/08/07 20:20:04;;;;;;;;;;;24.90;73.70;;;;;;10526211;28;20082;-33
2023/08/07 20:25:09;;;;;;;7.22;1.55;;;24.80;78.00;;;;;;10533970;28;19924;-42
2023/08/07 20:30:11;;;;;;;7.60;1.70;;;25.30;74.30;;;;;;10530190;28;20088;-36
2023/08/07 20:35:13;;;;;;;10.77;1.83;;;25.40;73.40;;;;;;10516746;28;20039;-42
2023/08/07 20:40:16;;;;;;;14.25;3.20;;;25.40;72.70;;;;;;10530350;28;20052;-40
2023/08/07 20:45:18;;;;;;;8.50;1.92;;;25.20;73.00;;;;;;10531227;28;20126;-35
2023/08/07 20:50:20;;;;;;;;;;;23.90;78.70;;;;;;10536649;28;20062;-33
2023/08/07 20:55:23;;;;;;;10.43;1.88;;;23.80;82.00;;;;;;10532241;28;19963;-37
2023/08/07 21:00:25;;;;;;;10.77;1.88;;;22.40;91.20;;;;;;10533629;28;20040;-33
2023/08/07 21:05:27;;;;;;;8.90;2.55;;;23.30;86.60;;;;;;10528406;28;20048;-35
2023/08/07 21:10:30;;;;;;;10.95;1.85;;;22.50;91.90;;;;;;10524152;28;20620;-42
2023/08/07 21:15:32;;;;;;;9.82;1.80;;;22.80;90.50;;;;;;10532645;28;20138;-32
2023/08/07 21:20:34;;;;;;;5.32;1.50;;;22.80;90.70;;;;;;10533157;28;20048;-33
2023/08/07 21:25:37;;;;;;;7.10;1.95;;;22.40;90.70;;;;;;10534213;28;20477;-35
2023/08/07 21:30:39;;;;;;;15.38;2.47;;;22.10;93.00;;;;;;10527511;28;20079;-35
2023/08/07 21:35:40;;;;;;;6.32;1.85;;;21.40;94.50;;;;;;10525147;28;20163;-31
2023/08/07 21:40:43;;;;;;;7.22;1.83;;;21.90;93.80;;;;;;10529191;28;20756;-37
2023/08/07 21:45:45;;;;;;;7.28;1.70;;;21.90;92.50;;;;;;10498683;28;20036;-35
2023/08/07 21:50:49;;;;;;;;;;;21.80;94.90;;;;;;10530401;28;20509;-37
2023/08/07 21:55:53;;;;;;;8.35;1.90;;;21.90;92.70;;;;;;10527767;28;20005;-37
2023/08/07 22:00:54;;;;;;;9.13;1.90;;;21.40;96.00;;;;;;10527366;28;20444;-37
2023/08/07 22:05:56;;;;;;;6.95;1.85;;;21.40;95.00;;;;;;10530458;28;20664;-38
2023/08/07 22:11:00;;;;;;;6.07;1.77;;;21.60;94.90;;;;;;10530800;28;20131;-36
2023/08/07 22:16:02;;;;;;;7.90;1.80;;;21.30;96.00;;;;;;10530088;28;20047;-38
2023/08/07 22:21:04;;;;;;;6.13;1.42;;;21.10;96.90;;;;;;10527062;28;20130;-34
2023/08/07 22:26:07;;;;;;;7.05;1.83;;;22.10;94.10;;;;;;10529274;28;20089;-35
2023/08/07 22:31:09;;;;;;;5.53;1.77;;;22.40;92.30;;;;;;10528338;28;20419;-31
2023/08/07 22:36:13;;;;;;;6.68;1.80;;;21.20;96.70;;;;;;10524970;28;20047;-35
2023/08/07 22:41:18;;;;;;;9.50;2.38;;;21.80;94.20;;;;;;10527091;28;20752;-35
2023/08/07 22:46:20;;;;;;;5.13;1.67;;;21.70;94.40;;;;;;10522864;28;20044;-34
2023/08/07 22:51:22;;;;;;;8.95;2.22;;;21.90;93.30;;;;;;10523160;28;20035;-33
2023/08/07 22:56:26;;;;;;;8.20;2.30;;;21.40;94.80;;;;;;10528216;28;20146;-31
2023/08/07 23:01:28;;;;;;;5.30;1.65;;;21.00;96.20;;;;;;10527698;28;20039;-42
2023/08/07 23:06:30;;;;;;;8.77;1.85;;;20.50;99.10;;;;;;10531038;28;20044;-42
2023/08/07 23:11:33;;;;;;;8.88;2.10;;;20.90;98.10;;;;;;10526298;28;20094;-36
2023/08/07 23:16:35;;;;;;;8.80;2.45;;;20.80;98.20;;;;;;10526960;28;20059;-32
2023/08/07 23:21:37;;;;;;;8.93;1.65;;;20.20;99.80;;;;;;10529624;28;20059;-35
2023/08/07 23:26:40;;;;;;;8.98;1.88;;;21.20;96.70;;;;;;10527970;28;20117;-36
2023/08/07 23:31:42;;;;;;;11.25;2.35;;;21.00;98.20;;;;;;10536598;28;20146;-31
2023/08/07 23:36:44;;;;;;;8.07;2.28;;;20.30;99.90;;;;;;10534974;28;20052;-33
2023/08/07 23:41:47;;;;;;;4.25;2.03;;;20.70;99.90;;;;;;10539963;28;20120;-33
2023/08/07 23:46:49;;;;;;;8.38;1.85;;;20.90;98.70;;;;;;10537415;28;20055;-31
2023/08/07 23:51:50;;;;;;;3.17;1.10;;;21.30;93.30;;;;;;10537376;28;20090;-37
2023/08/07 23:56:54;;;;;;;2.97;1.23;;;22.00;94.20;;;;;;10541409;28;20526;-30
